ZLXY/XIY METAR and TAF weather

Enter ICAO airport designator
Station Type Date Time Source
ZLXY METAR 2019/12/07 17:00 UTC NOAA

ZLXY 071700Z 22002MPS 2000 BR NSC M02/M03 Q1029 NOSIG


Station Type Date Time Source
ZLXY Decoded METAR 2019/12/07 17:00 UTC NOAA

Xian/Xianyang, China (ZLXY) 34-26N 108-45E
Dec 07, 2019 - 12:00 PM EST / 2019.12.07 1700 UTC
Wind: from the SW (220 degrees) at 4 MPH (4 KT):0
Visibility: 1 mile(s):0
Weather: mist
Temperature: 28 F (-2 C)
Dew Point: 26 F (-3 C)
Relative Humidity: 92%
Pressure (altimeter): 30.39 in. Hg (1029 hPa)
ob: ZLXY 071700Z 22002MPS 2000 BR NSC M02/M03 Q1029 NOSIG
cycle: 17

Station Type Date Time Source
ZLXY TAF 2019/12/07 18:03 UTC NOAA

TAF ZLXY 071517Z 0718/0818 24003MPS 2000 BR NSC TX12/0807Z TNM08/22Z
BECMG 0802/0803 3000 HZ

Example: see airport list